createdAt,value
2022-10-21T00:00:58.628Z,13.90
2022-10-21T00:05:01.479Z,13.90
2022-10-21T00:09:05.947Z,14.00
2022-10-21T00:13:08.843Z,14.00
2022-10-21T00:17:11.695Z,14.00
2022-10-21T00:21:15.659Z,14.00
2022-10-21T00:25:20.031Z,14.00
2022-10-21T00:29:22.980Z,14.00
2022-10-21T00:33:26.343Z,14.00
2022-10-21T00:37:30.262Z,14.00
2022-10-21T00:41:34.517Z,14.10
2022-10-21T00:45:37.351Z,14.10
2022-10-21T00:49:41.884Z,14.10
2022-10-21T00:53:46.193Z,14.20
2022-10-21T00:57:51.253Z,14.20
2022-10-21T01:01:54.967Z,14.20
2022-10-21T01:05:58.859Z,14.20
2022-10-21T01:10:01.752Z,14.30
2022-10-21T01:14:14.487Z,14.30
2022-10-21T01:18:21.620Z,14.30
2022-10-21T01:22:33.711Z,14.40
2022-10-21T01:27:02.436Z,14.40
2022-10-21T01:31:09.259Z,14.40
2022-10-21T01:35:13.583Z,14.50
2022-10-21T01:39:21.665Z,14.50
2022-10-21T01:43:28.636Z,14.50
2022-10-21T01:47:34.606Z,14.50
2022-10-21T01:51:38.147Z,14.60
2022-10-21T01:55:41.577Z,14.60
2022-10-21T01:59:44.899Z,14.60
2022-10-21T02:03:51.180Z,14.70
2022-10-21T02:07:54.098Z,14.70
2022-10-21T02:11:59.389Z,14.70
2022-10-21T02:16:03.498Z,14.70
2022-10-21T02:20:10.002Z,14.70
2022-10-21T02:24:16.160Z,14.70
2022-10-21T02:28:19.827Z,14.70
2022-10-21T02:32:27.555Z,14.70
2022-10-21T02:36:37.393Z,14.70
2022-10-21T02:40:43.403Z,14.70
2022-10-21T02:44:46.300Z,14.70
2022-10-21T02:48:49.863Z,14.70
2022-10-21T02:52:54.080Z,14.80
2022-10-21T02:56:56.930Z,14.80
2022-10-21T03:00:59.871Z,14.80
2022-10-21T03:05:02.744Z,14.80
2022-10-21T03:09:07.001Z,14.80
2022-10-21T03:13:09.922Z,14.80
2022-10-21T03:17:12.766Z,14.80
2022-10-21T03:21:15.622Z,14.90
2022-10-21T03:25:19.832Z,14.90
2022-10-21T03:29:22.702Z,14.90
2022-10-21T03:33:25.583Z,14.90
2022-10-21T03:37:29.436Z,14.90
2022-10-21T03:41:33.683Z,14.90
2022-10-21T03:45:36.532Z,14.90
2022-10-21T03:49:39.397Z,14.90
2022-10-21T03:53:43.724Z,14.90
2022-10-21T03:57:48.284Z,14.90
2022-10-21T04:01:51.171Z,14.90
2022-10-21T04:05:54.068Z,14.90
2022-10-21T04:09:56.919Z,14.90
2022-10-21T04:14:01.200Z,14.90
2022-10-21T04:18:04.120Z,14.90
2022-10-21T04:22:07.007Z,14.90
2022-10-21T04:26:09.902Z,14.90
2022-10-21T04:30:14.120Z,14.90
2022-10-21T04:34:17.748Z,14.90
2022-10-21T04:38:20.650Z,14.90
2022-10-21T04:42:23.548Z,14.90
2022-10-21T04:46:27.815Z,14.90
2022-10-21T04:50:30.667Z,14.80
2022-10-21T04:54:36.669Z,14.80
2022-10-21T04:58:39.525Z,14.80
2022-10-21T05:02:43.743Z,14.80
2022-10-21T05:06:46.604Z,14.80
2022-10-21T05:10:49.517Z,14.80
2022-10-21T05:14:52.510Z,14.80
2022-10-21T05:18:56.767Z,14.80
2022-10-21T05:23:00.657Z,14.80
2022-10-21T05:27:04.217Z,14.70
2022-10-21T05:31:07.545Z,14.70
2022-10-21T05:35:24.756Z,14.70
2022-10-21T05:39:27.783Z,14.70
2022-10-21T05:43:30.849Z,14.70
2022-10-21T05:47:33.733Z,14.70
2022-10-21T05:51:37.980Z,14.70
2022-10-21T05:55:40.832Z,14.60
2022-10-21T05:59:43.698Z,14.60
2022-10-21T06:03:46.562Z,14.50
2022-10-21T06:07:50.824Z,14.50
2022-10-21T06:11:53.674Z,14.50
2022-10-21T06:15:56.564Z,14.40
2022-10-21T06:19:59.445Z,14.40
2022-10-21T06:24:03.658Z,14.40
2022-10-21T06:28:28.992Z,14.40
2022-10-21T06:32:32.849Z,14.40
2022-10-21T06:36:38.134Z,14.40
2022-10-21T06:40:42.711Z,14.40
2022-10-21T06:44:45.563Z,14.40
2022-10-21T06:48:48.408Z,14.40
2022-10-21T06:52:51.577Z,14.40
2022-10-21T06:56:55.787Z,14.50
2022-10-21T07:00:59.737Z,14.50
2022-10-21T07:05:02.600Z,14.50
2022-10-21T07:09:06.003Z,14.50
2022-10-21T07:13:11.406Z,14.50
2022-10-21T07:17:14.257Z,14.50
2022-10-21T07:21:18.231Z,14.60
2022-10-21T07:25:21.109Z,14.60
2022-10-21T07:29:25.424Z,14.60
2022-10-21T07:33:28.377Z,14.70
2022-10-21T07:37:31.241Z,14.80
2022-10-21T07:41:35.079Z,14.80
2022-10-21T07:45:41.090Z,14.90
2022-10-21T07:49:43.937Z,14.90
2022-10-21T07:53:47.251Z,14.90
2022-10-21T07:57:50.107Z,15.00
2022-10-21T08:01:54.327Z,15.00
2022-10-21T08:05:57.526Z,15.10
2022-10-21T08:10:00.761Z,15.10
2022-10-21T08:14:06.699Z,15.10
2022-10-21T08:18:10.967Z,15.20
2022-10-21T08:22:13.803Z,15.30
2022-10-21T08:26:16.966Z,15.30
2022-10-21T08:30:19.857Z,15.40
2022-10-21T08:34:24.283Z,15.50
2022-10-21T08:38:27.143Z,15.60
2022-10-21T08:42:30.024Z,15.70
2022-10-21T08:46:34.730Z,15.90
2022-10-21T08:50:40.389Z,16.00
2022-10-21T08:54:45.789Z,16.20
2022-10-21T08:58:50.704Z,16.30
2022-10-21T09:03:00.241Z,16.50
2022-10-21T15:52:02.836Z,17.50
2022-10-21T15:56:05.921Z,17.50
2022-10-21T16:00:14.064Z,17.50
2022-10-21T16:04:16.988Z,17.50
2022-10-21T16:08:21.167Z,17.40
2022-10-21T16:12:24.488Z,17.40
2022-10-21T16:16:27.539Z,17.40
2022-10-21T16:20:31.151Z,17.30
2022-10-21T16:24:36.471Z,17.30
2022-10-21T16:28:39.349Z,17.30
2022-10-21T16:32:42.389Z,17.20
2022-10-21T16:36:45.314Z,17.20
2022-10-21T16:40:49.557Z,17.20
2022-10-21T16:44:52.432Z,17.20
2022-10-21T16:48:55.324Z,17.10
2022-10-21T16:52:58.718Z,17.10
2022-10-21T16:57:06.191Z,17.00
2022-10-21T17:01:11.890Z,17.00
2022-10-21T17:05:14.862Z,16.90
2022-10-21T17:09:17.943Z,16.80
2022-10-21T17:13:22.177Z,16.80
2022-10-21T17:17:49.035Z,16.70
2022-10-21T17:21:51.904Z,16.70
2022-10-21T17:25:54.762Z,16.60
2022-10-21T17:29:59.009Z,16.60
2022-10-21T17:34:06.394Z,16.60
2022-10-21T17:38:09.588Z,16.50
2022-10-21T17:42:16.970Z,16.50
2022-10-21T17:46:22.399Z,16.50
2022-10-21T17:50:26.228Z,16.50
2022-10-21T17:54:32.654Z,16.40
2022-10-21T17:58:36.898Z,16.40
2022-10-21T18:02:41.336Z,16.40
2022-10-21T18:06:44.415Z,16.40
2022-10-21T18:10:52.180Z,16.40
2022-10-21T18:14:56.113Z,16.30
2022-10-21T18:19:02.866Z,16.30
2022-10-21T18:23:07.249Z,16.30
2022-10-21T18:27:10.512Z,16.30
2022-10-21T18:31:13.392Z,16.20
2022-10-21T18:35:17.775Z,16.20
2022-10-21T18:39:20.838Z,16.20
2022-10-21T18:43:23.796Z,16.20
2022-10-21T18:47:28.125Z,16.10
2022-10-21T18:51:39.585Z,16.10
2022-10-21T18:55:42.508Z,16.10
2022-10-21T18:59:45.355Z,16.10
2022-10-21T19:03:50.777Z,16.10
2022-10-21T19:07:55.636Z,16.00
2022-10-21T19:12:00.496Z,16.00
2022-10-21T19:16:03.349Z,15.90
2022-10-21T19:20:07.082Z,15.90
2022-10-21T19:24:11.305Z,15.90
2022-10-21T19:28:14.134Z,15.80
2022-10-21T19:32:17.046Z,15.80
2022-10-21T19:36:19.886Z,15.70
2022-10-21T19:40:24.199Z,15.60
2022-10-21T19:44:27.109Z,15.60
2022-10-21T19:48:30.056Z,15.50
2022-10-21T19:52:32.916Z,15.40
2022-10-21T19:56:37.268Z,15.40
2022-10-21T20:00:40.199Z,15.30
2022-10-21T20:04:43.021Z,15.20
2022-10-21T20:08:45.933Z,15.20
2022-10-21T20:12:58.663Z,15.10
2022-10-21T20:17:01.733Z,15.10
2022-10-21T20:21:07.201Z,15.10
2022-10-21T20:25:10.353Z,15.10
2022-10-21T20:29:15.534Z,15.00
2022-10-21T20:33:18.392Z,15.00
2022-10-21T20:37:21.247Z,15.00
2022-10-21T20:41:25.858Z,15.00
2022-10-21T20:45:30.339Z,15.00
2022-10-21T20:49:33.362Z,15.00
2022-10-21T20:53:37.072Z,14.90
2022-10-21T20:57:40.425Z,14.90
2022-10-21T21:01:46.386Z,14.90
2022-10-21T21:05:49.282Z,14.90
2022-10-21T21:10:02.160Z,14.90
2022-10-21T21:14:06.207Z,14.90
2022-10-21T21:18:14.078Z,14.80
2022-10-21T21:22:16.959Z,14.80
2022-10-21T21:26:21.096Z,14.80
2022-10-21T21:30:24.069Z,14.80
2022-10-21T21:34:29.470Z,14.80
2022-10-21T21:38:33.578Z,14.80
2022-10-21T21:42:36.759Z,14.80
2022-10-21T21:46:39.633Z,14.80
2022-10-21T21:50:44.108Z,14.80
2022-10-21T21:54:46.929Z,14.80
2022-10-21T21:58:50.132Z,14.90
2022-10-21T22:02:52.988Z,14.90
2022-10-21T22:07:01.886Z,14.90
2022-10-21T22:11:06.897Z,14.90
2022-10-21T22:15:13.754Z,14.90
2022-10-21T22:19:22.896Z,14.90
2022-10-21T22:23:27.108Z,14.90
2022-10-21T22:32:22.076Z,14.90
2022-10-21T22:36:46.093Z,14.90
2022-10-21T22:41:20.525Z,14.90
2022-10-21T22:45:23.426Z,14.90
2022-10-21T22:49:26.370Z,14.90
2022-10-21T22:53:29.244Z,14.90
2022-10-21T22:57:33.498Z,14.90
2022-10-21T23:01:36.390Z,14.90
2022-10-21T23:05:39.462Z,14.90
2022-10-21T23:09:42.335Z,14.90
2022-10-21T23:13:56.420Z,14.90
2022-10-21T23:18:06.529Z,14.80
2022-10-21T23:22:10.703Z,14.80
2022-10-21T23:26:13.575Z,14.80
2022-10-21T23:30:18.129Z,14.70
2022-10-21T23:34:20.992Z,14.70
2022-10-21T23:38:23.925Z,14.70
2022-10-21T23:42:26.794Z,14.70
2022-10-21T23:46:31.041Z,14.60
2022-10-21T23:50:33.896Z,14.60
2022-10-21T23:54:36.723Z,14.60
2022-10-21T23:58:39.561Z,14.60
